LFBU 091030Z AUTO 17009KT 9999 -DZ FEW012 BKN020 BKN031 08/06 Q1011 NOSIG

ElémentsDécodage
LFBU Station météo située sur l'aérodrome de ANGOULEME Brie-Champniers
091030Z émis le 09 du mois à 10h30 UTC
AUTO Bulletin édité par un automate
17009KT vent du 170°, 09 noeuds
9999 visibilité horizontale supérieure à 10 Km
-DZ faible bruine
FEW012 nuages rares (1/8 à 2/8) à 1200 pieds
BKN020 nuages morcelés (5/8 à 7/8) à 2000 pieds
BKN031 nuages morcelés (5/8 à 7/8) à 3100 pieds
08/06 température 08°C, point de rosée 06°C
 soit une humidité relative de 87%
Q1011 la pression au niveau de la mer (QNH) est de 1011 hPa
NOSIG Pas de changement significatif prévu au cours des deux heures suivant l'heure de l'observation